Time;durP1;ratioP1;P1;durP2;ratioP2;P2;SDS_P1;SDS_P2;PMS_P1;PMS_P2;Temp;Humidity;BMP_temperature;BMP_pressure;BME280_temperature;BME280_humidity;BME280_pressure;Samples;Min_cycle;Max_cycle;Signal;HPM_P1;HPM_P2
2022/05/16 00:01:41;;;;;;;1999.90;999.90;;;12.30;99.90;;;;;;5054250;28;20523;-69
2022/05/16 00:04:08;;;;;;;1999.90;999.90;;;12.30;99.90;;;;;;5054490;28;20896;-69
2022/05/16 00:06:35;;;;;;;1999.90;999.90;;;12.50;99.90;;;;;;5054353;28;20893;-70
2022/05/16 00:09:02;;;;;;;1999.90;999.90;;;12.60;99.90;;;;;;5051272;28;20459;-70
2022/05/16 00:11:30;;;;;;;1999.90;999.90;;;12.60;99.90;;;;;;5056753;28;20532;-73
2022/05/16 00:13:57;;;;;;;1999.90;999.90;;;12.40;99.90;;;;;;5053224;28;21231;-68
2022/05/16 00:16:23;;;;;;;1999.90;999.90;;;12.30;99.90;;;;;;5043785;28;20520;-70
2022/05/16 00:18:51;;;;;;;1999.90;999.90;;;12.40;99.90;;;;;;5045078;28;20478;-73
2022/05/16 00:21:17;;;;;;;1999.90;999.90;;;12.50;99.90;;;;;;5047774;28;20458;-70
2022/05/16 00:23:44;;;;;;;1999.90;999.90;;;12.50;99.90;;;;;;5050481;28;20481;-74
2022/05/16 00:26:11;;;;;;;1999.90;999.90;;;12.30;99.90;;;;;;5047520;28;20460;-70
2022/05/16 00:28:39;;;;;;;1999.90;999.90;;;12.30;99.90;;;;;;5054567;28;20458;-71
2022/05/16 00:31:06;;;;;;;1999.90;999.90;;;12.20;99.90;;;;;;5042816;28;20455;-70
2022/05/16 00:33:33;;;;;;;1999.90;999.90;;;12.20;99.90;;;;;;5049370;28;20482;-70
2022/05/16 00:36:00;;;;;;;1999.90;999.90;;;12.20;99.90;;;;;;5046861;28;20462;-69
2022/05/16 00:38:27;;;;;;;1999.90;999.90;;;12.30;99.90;;;;;;5053000;28;20485;-70
2022/05/16 00:40:56;;;;;;;1999.90;999.90;;;12.30;99.90;;;;;;5054219;28;20462;-68
2022/05/16 00:43:41;;;;;;;1999.90;999.90;;;12.50;99.90;;;;;;5053719;28;20498;-70
2022/05/16 00:46:09;;;;;;;1999.90;999.90;;;12.50;99.90;;;;;;5044019;28;20529;-70
2022/05/16 00:48:36;;;;;;;1999.90;999.90;;;12.50;99.90;;;;;;5050980;28;20462;-70
2022/05/16 00:51:03;;;;;;;1999.90;999.90;;;12.60;99.90;;;;;;5045687;28;20517;-70
2022/05/16 00:53:30;;;;;;;1999.90;999.90;;;12.60;99.90;;;;;;5043367;28;21001;-69
2022/05/16 00:55:57;;;;;;;1999.90;999.90;;;12.70;99.90;;;;;;5052309;28;21126;-70
2022/05/16 00:58:24;;;;;;;1999.90;999.90;;;12.50;99.90;;;;;;5053344;28;20500;-69
2022/05/16 01:00:51;;;;;;;1999.90;999.90;;;12.50;99.90;;;;;;5053183;28;20459;-70
2022/05/16 01:06:07;;;;;;;1999.90;999.90;;;12.40;99.90;;;;;;5047218;28;20825;-71
2022/05/16 01:08:36;;;;;;;1999.90;999.90;;;12.10;99.90;;;;;;5044245;28;20463;-69
2022/05/16 01:11:07;;;;;;;1999.90;999.90;;;12.10;99.90;;;;;;5050973;28;20839;-70
2022/05/16 01:13:34;;;;;;;1999.90;999.90;;;12.00;99.90;;;;;;5045707;28;20892;-70
2022/05/16 01:16:02;;;;;;;1999.90;999.90;;;12.00;99.90;;;;;;5043826;28;20531;-70
2022/05/16 01:18:31;;;;;;;1999.90;999.90;;;12.00;99.90;;;;;;5048078;28;20546;-70
2022/05/16 01:21:15;;;;;;;1999.90;999.90;;;12.00;99.90;;;;;;5045391;28;20516;-71
2022/05/16 01:23:47;;;;;;;1999.90;999.90;;;12.10;99.90;;;;;;5052108;28;21013;-70
2022/05/16 01:26:18;;;;;;;1999.90;999.90;;;12.20;99.90;;;;;;5042682;28;20547;-71
2022/05/16 01:28:44;;;;;;;1999.90;999.90;;;12.10;99.90;;;;;;5050417;28;20434;-69
2022/05/16 01:31:11;;;;;;;1999.90;999.90;;;12.10;99.90;;;;;;5045255;28;20458;-70
2022/05/16 01:33:39;;;;;;;1999.90;999.90;;;12.10;99.90;;;;;;5053472;28;20640;-66
2022/05/16 01:36:06;;;;;;;1999.90;999.90;;;12.10;99.90;;;;;;5050346;28;20491;-70
2022/05/16 01:38:33;;;;;;;1999.90;999.90;;;12.10;99.90;;;;;;5042835;28;20463;-70
2022/05/16 01:41:04;;;;;;;1999.90;999.90;;;12.00;99.90;;;;;;5049234;28;20477;-70
2022/05/16 01:43:34;;;;;;;1999.90;999.90;;;12.00;99.90;;;;;;5046332;28;20466;-71
2022/05/16 01:46:01;;;;;;;1999.90;999.90;;;11.80;99.90;;;;;;5053502;28;20458;-69
2022/05/16 01:48:30;;;;;;;1999.90;999.90;;;11.80;99.90;;;;;;5053843;28;20942;-68
2022/05/16 01:50:59;;;;;;;1999.90;999.90;;;11.80;99.90;;;;;;5053611;28;20459;-70
2022/05/16 01:53:26;;;;;;;1999.90;999.90;;;11.70;99.90;;;;;;5045161;28;20494;-70
2022/05/16 01:55:53;;;;;;;1999.90;999.90;;;11.70;99.90;;;;;;5045443;28;20466;-70
2022/05/16 01:58:22;;;;;;;1999.90;999.90;;;11.60;99.90;;;;;;5054061;28;20875;-70
2022/05/16 02:00:49;;;;;;;1999.90;999.90;;;11.50;99.90;;;;;;5045173;28;20483;-71
2022/05/16 02:03:16;;;;;;;1999.90;999.90;;;11.40;99.90;;;;;;5047201;28;20849;-70
2022/05/16 02:05:44;;;;;;;1999.90;999.90;;;11.40;99.90;;;;;;5049604;28;21020;-69
2022/05/16 02:08:11;;;;;;;1999.90;999.90;;;11.40;99.90;;;;;;5039148;28;20867;-69
2022/05/16 02:10:39;;;;;;;1999.90;999.90;;;11.30;99.90;;;;;;5045467;28;20462;-70
2022/05/16 02:13:06;;;;;;;1999.90;999.90;;;11.30;99.90;;;;;;5052637;28;20478;-70
2022/05/16 02:15:36;;;;;;;1999.90;999.90;;;11.40;99.90;;;;;;5051741;28;20484;-70
2022/05/16 02:18:05;;;;;;;1999.90;999.90;;;11.40;99.90;;;;;;5050294;28;20459;-70
2022/05/16 02:20:32;;;;;;;1999.90;999.90;;;11.50;99.90;;;;;;5041242;28;20490;-69
2022/05/16 02:25:45;;;;;;;1999.90;999.90;;;11.60;99.90;;;;;;5051671;28;20461;-70
2022/05/16 02:28:15;;;;;;;1999.90;999.90;;;11.40;99.90;;;;;;5048832;28;20463;-77
2022/05/16 02:30:45;;;;;;;1999.90;999.90;;;11.20;99.90;;;;;;5046703;28;20529;-70
2022/05/16 02:33:14;;;;;;;1999.90;999.90;;;11.20;99.90;;;;;;5053091;28;20474;-70
2022/05/16 02:35:41;;;;;;;1999.90;999.90;;;11.10;99.90;;;;;;5048924;28;21011;-70
2022/05/16 02:38:09;;;;;;;1999.90;999.90;;;11.10;99.90;;;;;;5041375;28;20475;-71
2022/05/16 02:40:39;;;;;;;1999.90;999.90;;;11.10;99.90;;;;;;5046762;28;20485;-71
2022/05/16 02:43:06;;;;;;;1999.90;999.90;;;11.10;99.90;;;;;;5045943;28;20479;-69
2022/05/16 02:45:34;;;;;;;1999.90;999.90;;;11.10;99.90;;;;;;5047065;28;20465;-70
2022/05/16 02:48:02;;;;;;;1999.90;999.90;;;11.10;99.90;;;;;;5053068;28;20942;-69
2022/05/16 02:50:29;;;;;;;1999.90;999.90;;;11.10;99.90;;;;;;5049145;28;20486;-70
2022/05/16 02:52:57;;;;;;;1999.90;999.90;;;11.20;99.90;;;;;;5052810;28;20485;-70
2022/05/16 02:55:23;;;;;;;1999.90;999.90;;;11.10;99.90;;;;;;5046390;28;20474;-68
2022/05/16 02:57:50;;;;;;;1999.90;999.90;;;11.00;99.90;;;;;;5052888;28;20520;-69
2022/05/16 03:00:18;;;;;;;1999.90;999.90;;;10.90;99.90;;;;;;5053301;28;20478;-70
2022/05/16 03:02:45;;;;;;;1999.90;999.90;;;10.90;99.90;;;;;;5045981;28;20459;-70
2022/05/16 03:05:14;;;;;;;1999.90;999.90;;;10.90;99.90;;;;;;5040818;28;20529;-70
2022/05/16 03:07:40;;;;;;;1999.90;999.90;;;10.90;99.90;;;;;;5048040;28;20470;-69
2022/05/16 03:10:08;;;;;;;1999.90;999.90;;;11.00;99.90;;;;;;5044429;28;20459;-68
2022/05/16 03:12:35;;;;;;;1999.90;999.90;;;10.90;99.90;;;;;;5051300;28;20462;-66
2022/05/16 03:15:05;;;;;;;1999.90;999.90;;;10.90;99.90;;;;;;5046533;28;20455;-70
2022/05/16 03:17:31;;;;;;;1999.90;999.90;;;10.90;99.90;;;;;;5046846;28;20462;-70
2022/05/16 03:19:59;;;;;;;1999.90;999.90;;;11.00;99.90;;;;;;5049700;28;21005;-70
2022/05/16 03:22:27;;;;;;;1999.90;999.90;;;10.80;99.90;;;;;;5045494;28;20466;-69
2022/05/16 03:24:54;;;;;;;1999.90;999.90;;;10.80;99.90;;;;;;5047299;28;21002;-67
2022/05/16 03:27:20;;;;;;;1999.90;999.90;;;10.80;99.90;;;;;;5043599;28;20474;-67
2022/05/16 03:29:49;;;;;;;1999.90;999.90;;;10.70;99.90;;;;;;5051802;28;20484;-64
2022/05/16 03:32:16;;;;;;;1999.90;999.90;;;10.60;99.90;;;;;;5049664;28;20470;-67
2022/05/16 03:34:42;;;;;;;1999.90;999.90;;;10.60;99.90;;;;;;5035881;28;20490;-68
2022/05/16 03:37:09;;;;;;;1999.90;999.90;;;10.70;99.90;;;;;;5050873;28;20461;-68
2022/05/16 03:42:21;;;;;;;1999.90;999.90;;;10.80;99.90;;;;;;5044527;28;20461;-69
2022/05/16 03:44:48;;;;;;;1999.90;999.90;;;10.70;99.90;;;;;;5042197;28;20485;-68
2022/05/16 03:47:15;;;;;;;1999.90;999.90;;;10.70;99.90;;;;;;5043348;28;20488;-70
2022/05/16 03:49:41;;;;;;;1999.90;999.90;;;10.80;99.90;;;;;;5051283;28;20592;-69
2022/05/16 03:52:08;;;;;;;1999.90;999.90;;;10.80;99.90;;;;;;5044333;28;20470;-70
2022/05/16 03:54:36;;;;;;;1999.90;999.90;;;10.80;99.90;;;;;;5050665;28;20520;-70
2022/05/16 03:57:03;;;;;;;1999.90;999.90;;;10.80;99.90;;;;;;5051950;28;20462;-70
2022/05/16 03:59:30;;;;;;;1999.90;999.90;;;11.00;99.90;;;;;;5044180;28;21078;-70
2022/05/16 04:01:58;;;;;;;1999.90;999.90;;;11.10;99.90;;;;;;5045844;28;20488;-71
2022/05/16 04:04:25;;;;;;;1999.90;999.90;;;11.20;99.90;;;;;;5042932;28;20576;-70
2022/05/16 04:06:52;;;;;;;1999.90;999.90;;;11.10;99.90;;;;;;5047760;28;20484;-70
2022/05/16 04:09:19;;;;;;;1999.90;999.90;;;11.00;99.90;;;;;;5050319;28;20458;-70
2022/05/16 04:11:47;;;;;;;1999.90;999.90;;;11.10;99.90;;;;;;5053063;28;20442;-69
2022/05/16 04:14:13;;;;;;;1999.90;999.90;;;11.10;99.90;;;;;;5050293;28;20989;-69
2022/05/16 04:16:40;;;;;;;1999.90;999.90;;;11.20;99.90;;;;;;5051603;28;20815;-69
2022/05/16 04:19:08;;;;;;;1999.90;999.90;;;11.20;99.90;;;;;;5043816;28;20486;-70
2022/05/16 04:21:35;;;;;;;1999.90;999.90;;;11.30;99.90;;;;;;5042003;28;20486;-69
2022/05/16 04:24:02;;;;;;;1999.90;999.90;;;11.30;99.90;;;;;;5050848;28;20489;-70
2022/05/16 04:26:28;;;;;;;1999.90;999.90;;;11.40;99.90;;;;;;5045937;28;20466;-71
2022/05/16 04:28:57;;;;;;;1999.90;999.90;;;11.30;99.90;;;;;;5051298;28;20469;-70
2022/05/16 04:31:23;;;;;;;1999.90;999.90;;;11.40;99.90;;;;;;5043595;28;20497;-71
2022/05/16 04:33:50;;;;;;;1999.90;999.90;;;11.70;99.90;;;;;;5048946;28;20915;-69
2022/05/16 04:36:17;;;;;;;1999.90;999.90;;;11.80;99.90;;;;;;5056202;28;20508;-70
2022/05/16 04:38:44;;;;;;;1999.90;999.90;;;12.00;99.90;;;;;;5056405;28;20990;-69
2022/05/16 04:43:56;;;;;;;1999.90;999.90;;;12.40;99.90;;;;;;5055716;28;20470;-69
2022/05/16 04:46:23;;;;;;;1999.90;999.90;;;12.50;99.90;;;;;;5055751;28;20442;-68
2022/05/16 04:48:50;;;;;;;1999.90;999.90;;;12.60;99.90;;;;;;5056253;28;20438;-69
2022/05/16 04:51:17;;;;;;;1999.90;999.90;;;12.60;99.90;;;;;;5056212;28;20450;-69
2022/05/16 04:53:44;;;;;;;1999.90;999.90;;;12.70;99.90;;;;;;5070335;23;20507;-70
2022/05/16 04:56:10;;;;;;;1999.90;999.90;;;12.70;99.90;;;;;;5040595;28;20446;-71
2022/05/16 04:58:37;;;;;;;1999.90;999.90;;;12.70;99.90;;;;;;5053777;28;20991;-71
2022/05/16 05:01:05;;;;;;;1999.90;999.90;;;12.80;99.90;;;;;;5052756;28;20485;-72
2022/05/16 05:03:33;;;;;;;1999.90;999.90;;;12.90;99.90;;;;;;5033917;28;20463;-72
2022/05/16 05:05:59;;;;;;;1999.90;999.90;;;12.80;99.90;;;;;;5033830;28;21025;-71
2022/05/16 05:08:26;;;;;;;1999.90;999.90;;;12.70;99.90;;;;;;5041043;28;20894;-71
2022/05/16 05:16:24;;;;;;;1999.90;999.90;;;13.00;99.90;;;;;;5040953;28;20517;-72
2022/05/16 05:18:52;;;;;;;1999.90;999.90;;;13.10;99.90;;;;;;5047896;28;20520;-72
2022/05/16 05:21:19;;;;;;;1999.90;999.90;;;13.20;99.90;;;;;;5040607;28;20561;-71
2022/05/16 05:23:45;;;;;;;1999.90;999.90;;;13.30;99.90;;;;;;5041623;28;20483;-71
2022/05/16 05:26:13;;;;;;;1999.90;999.90;;;13.60;99.90;;;;;;5035622;28;20466;-71
2022/05/16 05:28:41;;;;;;;1999.90;999.90;;;13.70;99.90;;;;;;5039456;28;20473;-71
2022/05/16 05:31:12;;;;;;;1999.90;999.90;;;13.80;99.90;;;;;;5040699;28;20454;-71
2022/05/16 05:33:40;;;;;;;1999.90;999.90;;;13.90;99.90;;;;;;5042242;28;20497;-71
2022/05/16 05:36:08;;;;;;;1999.90;999.90;;;14.10;99.90;;;;;;5039061;28;20497;-71
2022/05/16 05:38:36;;;;;;;1999.90;999.90;;;14.00;99.90;;;;;;5030694;28;20463;-71
2022/05/16 05:41:03;;;;;;;1999.90;999.90;;;14.10;99.90;;;;;;5023132;28;20483;-71
2022/05/16 05:43:29;;;;;;;1999.90;999.90;;;14.30;99.90;;;;;;5031739;28;20479;-70
2022/05/16 05:45:56;;;;;;;1999.90;999.90;;;14.70;99.90;;;;;;5040676;28;20963;-71
2022/05/16 05:48:23;;;;;;;1999.90;999.90;;;14.90;99.90;;;;;;5040859;28;20458;-71
2022/05/16 05:50:51;;;;;;;1999.90;999.90;;;15.10;99.90;;;;;;5033238;28;20512;-71
2022/05/16 05:53:17;;;;;;;1999.90;999.90;;;15.30;99.90;;;;;;5032960;28;20492;-71
2022/05/16 05:55:47;;;;;;;1999.90;999.90;;;15.40;99.90;;;;;;5033245;28;20665;-71
2022/05/16 05:58:13;;;;;;;1999.90;999.90;;;15.60;99.90;;;;;;5052491;28;20503;-70
2022/05/16 06:00:40;;;;;;;1999.90;999.90;;;15.10;99.90;;;;;;5042795;28;20474;-71
2022/05/16 06:03:07;;;;;;;1999.90;999.90;;;15.50;99.90;;;;;;5033165;28;20443;-71
2022/05/16 06:05:34;;;;;;;1999.90;999.90;;;15.70;99.90;;;;;;5032470;28;20546;-71
2022/05/16 06:08:02;;;;;;;1999.90;999.90;;;16.00;99.90;;;;;;5031793;28;20471;-71
2022/05/16 06:10:29;;;;;;;1999.90;999.90;;;16.20;99.90;;;;;;5031134;28;20464;-71
2022/05/16 06:12:55;;;;;;;1999.90;999.90;;;16.50;99.90;;;;;;5030045;28;20525;-72
2022/05/16 06:15:22;;;;;;;1999.90;999.90;;;16.90;99.90;;;;;;5030908;28;20487;-71
2022/05/16 06:17:50;;;;;;;1999.90;999.90;;;16.80;99.90;;;;;;5031027;28;20905;-71
2022/05/16 06:20:17;;;;;;;1999.90;999.90;;;17.00;99.90;;;;;;5030312;28;20994;-71
2022/05/16 06:22:43;;;;;;;1999.90;999.90;;;17.00;99.90;;;;;;5028509;28;20523;-69
2022/05/16 06:25:33;;;;;;;1999.90;999.90;;;17.20;99.90;;;;;;5029417;28;20506;-71
2022/05/16 06:28:02;;;;;;;1999.90;999.90;;;17.50;99.90;;;;;;5029350;28;20455;-71
2022/05/16 06:30:29;;;;;;;1999.90;999.90;;;17.90;99.90;;;;;;5032917;28;20538;-71
2022/05/16 06:32:56;;;;;;;1999.90;999.90;;;17.80;99.90;;;;;;5031574;28;20463;-71
2022/05/16 06:35:23;;;;;;;1999.90;999.90;;;17.70;99.90;;;;;;5032201;28;21042;-71
2022/05/16 06:37:50;;;;;;;1999.90;999.90;;;17.60;99.90;;;;;;5031843;28;20474;-71
2022/05/16 06:40:20;;;;;;;1999.90;999.90;;;17.70;99.90;;;;;;5029830;28;20483;-72
2022/05/16 06:42:47;;;;;;;1999.90;999.90;;;17.90;99.90;;;;;;5029673;28;20467;-71
2022/05/16 06:45:15;;;;;;;1999.90;999.90;;;18.10;99.90;;;;;;5028865;28;20483;-72
2022/05/16 06:47:42;;;;;;;1999.90;999.90;;;18.10;99.90;;;;;;5031711;28;20459;-71
2022/05/16 06:50:09;;;;;;;1999.90;999.90;;;18.30;99.90;;;;;;5029756;28;20487;-71
2022/05/16 06:52:36;;;;;;;1999.90;999.90;;;18.40;99.90;;;;;;5030068;28;20463;-71
2022/05/16 06:55:04;;;;;;;1999.90;999.90;;;18.40;99.90;;;;;;5029293;28;20487;-70
2022/05/16 06:57:33;;;;;;;1999.90;999.90;;;18.70;99.90;;;;;;5030356;28;20532;-72
2022/05/16 07:00:00;;;;;;;1999.90;999.90;;;18.90;99.90;;;;;;5031177;28;20448;-71
2022/05/16 07:02:27;;;;;;;1999.90;999.90;;;18.90;99.90;;;;;;5027876;28;20894;-71
2022/05/16 07:04:53;;;;;;;1999.90;999.90;;;19.00;99.90;;;;;;5025145;28;20529;-72
2022/05/16 07:07:20;;;;;;;1999.90;999.90;;;19.30;99.90;;;;;;5031754;28;20444;-69
2022/05/16 07:09:47;;;;;;;1999.90;999.90;;;19.90;99.90;;;;;;5032327;28;20834;-69
2022/05/16 07:12:14;;;;;;;1999.90;999.90;;;20.20;99.90;;;;;;5031079;28;20465;-71
2022/05/16 07:14:42;;;;;;;1999.90;999.90;;;20.00;99.90;;;;;;5030855;28;20490;-69
2022/05/16 07:17:09;;;;;;;1999.90;999.90;;;19.80;99.90;;;;;;5028783;28;20466;-70
2022/05/16 07:19:36;;;;;;;1999.90;999.90;;;19.40;99.90;;;;;;5027182;28;20898;-72
2022/05/16 07:22:08;;;;;;;1999.90;999.90;;;19.30;99.90;;;;;;5025563;28;20499;-72
2022/05/16 07:24:34;;;;;;;1999.90;999.90;;;19.20;99.90;;;;;;5025314;28;20537;-71
2022/05/16 07:29:47;;;;;;;1999.90;999.90;;;19.60;99.90;;;;;;5028203;28;20455;-73
2022/05/16 07:32:14;;;;;;;1999.90;999.90;;;19.90;99.90;;;;;;5024588;28;21030;-70
2022/05/16 07:34:40;;;;;;;1999.90;999.90;;;20.20;99.90;;;;;;5029308;28;20545;-70
2022/05/16 07:37:07;;;;;;;1999.90;999.90;;;20.50;99.90;;;;;;5028114;28;20466;-70
2022/05/16 07:39:35;;;;;;;1999.90;999.90;;;20.80;99.90;;;;;;5030088;28;20513;-70
2022/05/16 07:42:02;;;;;;;1999.90;999.90;;;20.70;99.90;;;;;;5029518;28;20545;-70
2022/05/16 07:44:28;;;;;;;1999.90;999.90;;;20.80;99.90;;;;;;5028511;28;20491;-70
2022/05/16 07:46:56;;;;;;;1999.90;999.90;;;20.90;99.90;;;;;;5027052;28;20814;-70
2022/05/16 07:49:23;;;;;;;1999.90;999.90;;;20.90;99.90;;;;;;5030851;28;20963;-70
2022/05/16 07:51:50;;;;;;;1999.90;999.90;;;21.20;99.90;;;;;;5030193;28;20517;-70
2022/05/16 07:54:17;;;;;;;1999.90;999.90;;;21.10;99.90;;;;;;5027100;28;20552;-71
2022/05/16 07:56:43;;;;;;;1999.90;999.90;;;21.00;99.70;;;;;;5029044;28;20463;-71
2022/05/16 07:59:10;;;;;;;1999.90;999.90;;;20.70;99.90;;;;;;5028355;28;20459;-70
2022/05/16 08:01:37;;;;;;;1999.90;999.90;;;20.80;99.90;;;;;;5028831;28;20513;-70
2022/05/16 08:04:06;;;;;;;1999.90;999.90;;;20.90;99.90;;;;;;5020183;28;20538;-70
2022/05/16 08:06:33;;;;;;;1999.90;999.90;;;21.20;99.90;;;;;;5027577;28;20573;-70
2022/05/16 08:11:44;;;;;;;1999.90;999.90;;;21.50;99.60;;;;;;5032079;28;20451;-71
2022/05/16 08:14:11;;;;;;;1999.90;999.90;;;21.60;99.20;;;;;;5032666;28;20553;-71
2022/05/16 08:16:38;;;;;;;1999.90;999.90;;;21.80;98.50;;;;;;5034038;28;20843;-71
2022/05/16 08:19:06;;;;;;;1999.90;999.90;;;21.80;98.50;;;;;;5033176;28;20525;-71
2022/05/16 08:21:33;;;;;;;1999.90;999.90;;;21.80;98.60;;;;;;5032639;28;20478;-71
2022/05/16 08:24:01;;;;;;;1999.90;999.90;;;21.70;98.10;;;;;;5033430;28;20907;-71
2022/05/16 08:26:28;;;;;;;1999.90;999.90;;;21.70;98.20;;;;;;5033142;28;20466;-70
2022/05/16 08:28:54;;;;;;;1999.90;999.90;;;21.70;98.30;;;;;;5033789;28;20467;-71
2022/05/16 08:31:21;;;;;;;1999.90;999.90;;;21.90;98.50;;;;;;5033683;28;20967;-71
2022/05/16 08:33:48;;;;;;;1999.90;999.90;;;21.60;98.60;;;;;;5033648;28;20490;-71
2022/05/16 08:41:52;;;;;;;1999.90;999.90;;;22.20;98.20;;;;;;5032651;28;20984;-70
2022/05/16 08:44:22;;;;;;;1999.90;999.90;;;22.10;97.60;;;;;;5032852;28;20528;-71
2022/05/16 08:47:14;;;;;;;1999.90;999.90;;;22.10;97.90;;;;;;5032339;28;20481;-69
2022/05/16 08:49:46;;;;;;;1999.90;999.90;;;22.20;97.60;;;;;;5022604;28;20456;-70
2022/05/16 08:52:31;;;;;;;1999.90;999.90;;;22.70;98.30;;;;;;5034874;28;20463;-71
2022/05/16 08:55:04;;;;;;;1999.90;999.90;;;23.00;97.60;;;;;;5035498;28;21088;-70
2022/05/16 08:57:34;;;;;;;1999.90;999.90;;;23.20;97.30;;;;;;5046147;28;20961;-69
2022/05/16 09:00:06;;;;;;;1999.90;999.90;;;23.30;97.40;;;;;;5051305;28;20529;-70
2022/05/16 09:02:34;;;;;;;1999.90;999.90;;;23.10;97.60;;;;;;5040105;28;20482;-69
2022/05/16 09:05:09;;;;;;;1999.90;999.90;;;23.10;97.30;;;;;;5036509;28;21250;-70
2022/05/16 09:07:43;;;;;;;1999.90;999.90;;;23.30;97.30;;;;;;5042589;28;20968;-71
2022/05/16 09:10:13;;;;;;;1999.90;999.90;;;23.20;97.00;;;;;;5033809;28;20456;-70
2022/05/16 09:12:51;;;;;;;1999.90;999.90;;;23.20;96.90;;;;;;5030025;28;20945;-71
2022/05/16 09:15:26;;;;;;;1999.90;999.90;;;23.30;96.60;;;;;;5021646;28;20463;-70
2022/05/16 09:18:16;;;;;;;1999.90;999.90;;;23.40;96.30;;;;;;5014474;28;20447;-69
2022/05/16 09:20:53;;;;;;;1999.90;999.90;;;23.40;96.60;;;;;;5014360;28;20447;-70
2022/05/16 09:23:31;;;;;;;1999.90;999.90;;;23.90;96.30;;;;;;5014910;28;20472;-69
2022/05/16 09:26:08;;;;;;;1999.90;999.90;;;23.70;96.00;;;;;;5015116;28;20433;-70
2022/05/16 09:28:42;;;;;;;1999.90;999.90;;;23.80;95.60;;;;;;5032054;28;20462;-70
2022/05/16 09:31:15;;;;;;;1999.90;999.90;;;24.00;95.60;;;;;;5035221;28;20475;-69
2022/05/16 09:33:46;;;;;;;1999.90;999.90;;;24.10;95.40;;;;;;5042078;28;20519;-70
2022/05/16 09:36:15;;;;;;;1999.90;999.90;;;24.50;95.60;;;;;;5034384;28;20458;-70
2022/05/16 09:38:46;;;;;;;1999.90;999.90;;;24.20;94.70;;;;;;5045730;28;20463;-70
2022/05/16 09:41:21;;;;;;;1999.90;999.90;;;24.10;94.50;;;;;;5037520;28;20478;-70
2022/05/16 09:43:58;;;;;;;1999.90;999.90;;;24.10;94.60;;;;;;5036005;28;20494;-70
2022/05/16 09:46:33;;;;;;;1999.90;999.90;;;24.30;95.10;;;;;;5029846;28;20463;-70
2022/05/16 09:49:05;;;;;;;1999.90;999.90;;;24.50;94.80;;;;;;5044219;28;20449;-70
2022/05/16 09:51:43;;;;;;;1999.90;999.90;;;24.60;95.10;;;;;;5055201;28;20512;-71
2022/05/16 09:54:19;;;;;;;1999.90;999.90;;;24.60;94.40;;;;;;5053498;28;20477;-70
2022/05/16 09:57:19;;;;;;;1999.90;999.90;;;24.40;94.40;;;;;;5035819;28;20501;-70
2022/05/16 09:59:51;;;;;;;1999.90;999.90;;;24.70;94.70;;;;;;5030646;28;20460;-70
2022/05/16 10:02:24;;;;;;;1999.90;999.90;;;24.70;94.00;;;;;;5033751;28;20482;-70
2022/05/16 10:04:55;;;;;;;1999.90;999.90;;;24.60;93.90;;;;;;5035103;28;20494;-70
2022/05/16 10:07:28;;;;;;;1999.90;999.90;;;24.40;94.60;;;;;;5034421;28;20516;-70
2022/05/16 10:09:58;;;;;;;1999.90;999.90;;;24.10;94.50;;;;;;5033878;28;20892;-66
2022/05/16 10:12:28;;;;;;;1999.90;999.90;;;23.90;95.10;;;;;;5041162;28;20515;-70
2022/05/16 10:14:55;;;;;;;1999.90;999.90;;;23.90;95.60;;;;;;5043132;28;20915;-70
2022/05/16 10:17:28;;;;;;;1999.90;999.90;;;24.00;95.50;;;;;;5041020;28;20463;-70
2022/05/16 10:20:00;;;;;;;1999.90;999.90;;;24.00;95.30;;;;;;5047213;28;20568;-70
2022/05/16 10:22:28;;;;;;;1999.90;999.90;;;24.00;95.50;;;;;;5038804;28;20474;-69
2022/05/16 10:24:59;;;;;;;1999.90;999.90;;;24.10;95.20;;;;;;5043913;28;20490;-70
2022/05/16 10:27:29;;;;;;;1999.90;999.90;;;24.20;95.40;;;;;;5038372;28;20466;-70
2022/05/16 10:29:58;;;;;;;1999.90;999.90;;;24.60;95.80;;;;;;5035445;28;20538;-73
2022/05/16 10:35:21;;;;;;;1999.90;999.90;;;25.10;95.00;;;;;;5040481;28;20447;-70
2022/05/16 10:37:51;;;;;;;1999.90;999.90;;;25.40;95.10;;;;;;5013160;28;20452;-71
2022/05/16 10:40:28;;;;;;;1999.90;999.90;;;25.40;95.00;;;;;;5027952;28;20546;-71
2022/05/16 10:43:07;;;;;;;1999.90;999.90;;;25.40;95.00;;;;;;5043603;28;20493;-71
2022/05/16 10:45:37;;;;;;;1999.90;999.90;;;25.30;94.90;;;;;;5052419;28;20451;-72
2022/05/16 10:48:14;;;;;;;1999.90;999.90;;;25.30;95.40;;;;;;5043005;28;20468;-71
2022/05/16 10:50:47;;;;;;;1999.90;999.90;;;25.50;95.10;;;;;;5039486;28;20461;-71
2022/05/16 10:53:18;;;;;;;1999.90;999.90;;;25.60;95.00;;;;;;5035924;28;20449;-72
2022/05/16 10:55:53;;;;;;;1999.90;999.90;;;25.60;94.40;;;;;;5062173;23;20497;-65
2022/05/16 10:58:31;;;;;;;1999.90;999.90;;;25.40;94.40;;;;;;5047795;28;20458;-66
2022/05/16 11:01:04;;;;;;;1999.90;999.90;;;25.40;94.30;;;;;;5047807;28;20454;-66
2022/05/16 11:04:00;;;;;;;1999.90;999.90;;;25.40;93.90;;;;;;5050312;28;20990;-65
2022/05/16 11:06:51;;;;;;;1999.90;999.90;;;25.40;94.00;;;;;;5031951;28;21005;-66
2022/05/16 11:09:26;;;;;;;1999.90;999.90;;;25.60;93.50;;;;;;5032274;28;20504;-65
2022/05/16 11:12:00;;;;;;;1999.90;999.90;;;25.70;93.50;;;;;;5031906;28;20443;-66
2022/05/16 11:14:33;;;;;;;1999.90;999.90;;;25.80;93.40;;;;;;5031802;28;20475;-66
2022/05/16 11:17:08;;;;;;;1999.90;999.90;;;25.90;93.20;;;;;;5031287;28;20450;-65
2022/05/16 11:19:43;;;;;;;1999.90;999.90;;;26.30;93.30;;;;;;5032100;28;20489;-65
2022/05/16 11:22:17;;;;;;;1999.90;999.90;;;26.40;92.70;;;;;;5031881;28;20517;-66
2022/05/16 11:24:51;;;;;;;1999.90;999.90;;;26.60;92.40;;;;;;5032041;28;20886;-65
2022/05/16 11:27:30;;;;;;;1999.90;999.90;;;26.50;92.40;;;;;;5031647;28;20447;-65
2022/05/16 11:30:05;;;;;;;1999.90;999.90;;;26.20;92.20;;;;;;5031819;28;20442;-65
2022/05/16 11:32:45;;;;;;;1999.90;999.90;;;26.40;93.00;;;;;;5031468;28;20454;-66
2022/05/16 11:35:22;;;;;;;1999.90;999.90;;;26.40;92.60;;;;;;5031574;28;20849;-66
2022/05/16 11:38:18;;;;;;;1999.90;999.90;;;26.10;93.00;;;;;;5031727;28;20435;-66
2022/05/16 11:40:51;;;;;;;1999.90;999.90;;;26.10;93.20;;;;;;4995032;28;20519;-66
2022/05/16 11:43:24;;;;;;;1999.90;999.90;;;26.20;93.30;;;;;;5033487;28;20516;-65
2022/05/16 11:46:22;;;;;;;1999.90;999.90;;;26.20;93.20;;;;;;5035282;28;20477;-66
2022/05/16 11:49:02;;;;;;;1999.90;999.90;;;26.20;93.40;;;;;;5035699;28;20451;-65
2022/05/16 11:51:40;;;;;;;1999.90;999.90;;;26.40;94.00;;;;;;5031824;28;20474;-65
2022/05/16 11:54:09;;;;;;;1999.90;999.90;;;26.60;92.00;;;;;;5031182;28;20487;-66
2022/05/16 12:02:22;;;;;;;1999.90;999.90;;;26.70;90.20;;;;;;5034992;28;20493;-66
2022/05/16 12:04:51;;;;;;;1999.90;999.90;;;26.60;90.10;;;;;;5035579;28;20469;-65
2022/05/16 12:07:22;;;;;;;1999.90;999.90;;;26.60;90.60;;;;;;5033422;28;20467;-65
2022/05/16 12:09:56;;;;;;;1999.90;999.90;;;26.40;90.70;;;;;;5034241;28;20538;-66
2022/05/16 12:12:34;;;;;;;1999.90;999.90;;;26.20;90.90;;;;;;5032860;28;21037;-66
2022/05/16 12:15:32;;;;;;;1999.90;999.90;;;26.00;91.10;;;;;;5034257;28;20551;-65
2022/05/16 12:18:01;;;;;;;1999.90;999.90;;;25.80;91.70;;;;;;5003697;28;20454;-66
2022/05/16 12:20:38;;;;;;;1999.90;999.90;;;25.70;92.10;;;;;;5028191;28;20463;-66
2022/05/16 12:23:06;;;;;;;1999.90;999.90;;;25.60;92.30;;;;;;5033892;28;20479;-64
2022/05/16 12:25:35;;;;;;;1999.90;999.90;;;25.50;92.40;;;;;;5027412;28;20534;-66
2022/05/16 12:28:23;;;;;;;1999.90;999.90;;;25.40;92.70;;;;;;5033489;28;20546;-66
2022/05/16 12:30:55;;;;;;;1999.90;999.90;;;25.50;93.10;;;;;;5033401;28;20498;-66
2022/05/16 12:33:51;;;;;;;1999.90;999.90;;;25.40;93.30;;;;;;5027631;28;20505;-66
2022/05/16 12:36:19;;;;;;;1999.90;999.90;;;25.40;93.70;;;;;;5029863;28;20472;-66
2022/05/16 12:38:50;;;;;;;1999.90;999.90;;;25.30;94.30;;;;;;5031359;28;20496;-65
2022/05/16 12:41:51;;;;;;;1999.90;999.90;;;25.30;94.50;;;;;;5033647;28;20471;-65
2022/05/16 12:44:41;;;;;;;1999.90;999.90;;;25.20;95.80;;;;;;5023396;28;20475;-66
2022/05/16 12:47:48;;;;;;;1999.90;999.90;;;25.20;97.00;;;;;;5028899;28;20522;-66
2022/05/16 12:50:35;;;;;;;1999.90;999.90;;;25.10;98.30;;;;;;5028519;28;20529;-66